createdAt,value
2022-09-03T00:04:54.383Z,15.20
2022-09-03T00:09:55.716Z,15.16
2022-09-03T00:14:57.894Z,15.00
2022-09-03T00:19:59.197Z,14.98
2022-09-03T00:25:01.105Z,14.88
2022-09-03T00:30:03.582Z,14.87
2022-09-03T00:35:04.858Z,14.68
2022-09-03T00:40:08.109Z,14.51
2022-09-03T00:45:09.417Z,14.56
2022-09-03T00:50:11.722Z,14.60
2022-09-03T00:55:13.036Z,14.41
2022-09-03T01:00:14.472Z,14.39
2022-09-03T01:05:15.777Z,14.41
2022-09-03T01:10:17.089Z,14.44
2022-09-03T01:15:18.443Z,14.27
2022-09-03T01:20:19.718Z,14.20
2022-09-03T01:25:21.002Z,14.26
2022-09-03T01:30:24.186Z,14.25
2022-09-03T01:35:25.626Z,14.22
2022-09-03T01:40:29.316Z,14.20
2022-09-03T01:45:30.838Z,14.13
2022-09-03T01:50:34.188Z,14.10
2022-09-03T01:55:35.468Z,14.01
2022-09-03T02:00:36.724Z,13.99
2022-09-03T02:05:39.254Z,13.76
2022-09-03T02:10:40.581Z,13.92
2022-09-03T02:15:42.028Z,13.91
2022-09-03T02:20:43.443Z,13.89
2022-09-03T02:25:44.868Z,13.94
2022-09-03T02:30:46.394Z,13.85
2022-09-03T02:35:47.791Z,13.66
2022-09-03T02:40:49.130Z,13.44
2022-09-03T02:45:50.531Z,13.47
2022-09-03T02:50:52.011Z,13.73
2022-09-03T02:55:53.569Z,13.72
2022-09-03T03:00:54.996Z,13.80
2022-09-03T03:05:56.653Z,13.97
2022-09-03T03:10:58.777Z,14.05
2022-09-03T03:16:00.238Z,14.21
2022-09-03T03:21:01.530Z,14.35
2022-09-03T03:26:02.888Z,14.30
2022-09-03T03:31:04.271Z,14.23
2022-09-03T03:36:05.935Z,14.28
2022-09-03T03:41:07.237Z,14.12
2022-09-03T03:46:08.651Z,14.25
2022-09-03T03:51:10.068Z,14.17
2022-09-03T03:56:11.396Z,14.18
2022-09-03T04:01:12.810Z,14.09
2022-09-03T04:06:14.159Z,14.10
2022-09-03T04:11:15.426Z,14.03
2022-09-03T04:16:16.846Z,13.80
2022-09-03T04:21:18.123Z,13.79
2022-09-03T04:26:19.437Z,13.61
2022-09-03T04:31:20.845Z,13.48
2022-09-03T04:36:22.167Z,13.66
2022-09-03T04:41:24.942Z,13.74
2022-09-03T04:46:26.526Z,13.66
2022-09-03T04:51:28.104Z,13.75
2022-09-03T04:56:29.427Z,13.81
2022-09-03T05:01:30.829Z,13.88
2022-09-03T05:06:32.193Z,13.80
2022-09-03T05:11:33.537Z,13.92
2022-09-03T05:16:34.988Z,14.03
2022-09-03T05:21:36.445Z,14.09
2022-09-03T05:26:37.755Z,14.05
2022-09-03T05:31:39.414Z,14.16
2022-09-03T05:36:40.834Z,14.47
2022-09-03T05:41:42.391Z,14.52
2022-09-03T05:46:43.673Z,14.50
2022-09-03T05:51:46.324Z,14.27
2022-09-03T05:56:47.672Z,14.32
2022-09-03T06:01:51.774Z,14.62
2022-09-03T06:06:53.862Z,14.67
2022-09-03T06:11:57.137Z,14.37
2022-09-03T06:16:58.903Z,14.30
2022-09-03T06:22:00.208Z,14.51
2022-09-03T06:27:01.565Z,14.43
2022-09-03T06:32:05.006Z,14.22
2022-09-03T06:37:06.383Z,13.99
2022-09-03T06:42:09.009Z,14.26
2022-09-03T06:47:10.318Z,14.60
2022-09-03T06:52:11.659Z,15.07
2022-09-03T06:57:16.331Z,15.27
2022-09-03T07:02:19.352Z,15.36
2022-09-03T07:07:20.764Z,15.84
2022-09-03T07:12:22.071Z,15.99
2022-09-03T07:17:23.371Z,16.22
2022-09-03T07:22:26.078Z,16.00
2022-09-03T07:27:32.979Z,16.10
2022-09-03T07:32:34.258Z,16.22
2022-09-03T07:37:35.522Z,16.54
2022-09-03T07:42:38.518Z,17.10
2022-09-03T07:47:42.344Z,18.08
2022-09-03T07:52:43.684Z,17.95
2022-09-03T07:57:44.957Z,17.64
2022-09-03T08:02:46.607Z,18.44
2022-09-03T08:07:48.412Z,18.82
2022-09-03T08:12:50.558Z,18.74
2022-09-03T08:17:52.187Z,18.50
2022-09-03T08:22:53.469Z,18.54
2022-09-03T08:27:54.768Z,18.58
2022-09-03T08:32:56.091Z,18.64
2022-09-03T08:37:57.401Z,18.76
2022-09-03T08:43:04.892Z,19.07
2022-09-03T08:48:08.383Z,19.33
2022-09-03T08:53:09.899Z,19.88
2022-09-03T08:58:11.743Z,19.93
2022-09-03T09:03:13.851Z,19.81
2022-09-03T09:08:15.650Z,20.11
2022-09-03T09:13:17.545Z,20.68
2022-09-03T09:18:18.956Z,20.85
2022-09-03T09:23:20.339Z,20.50
2022-09-03T09:28:23.331Z,20.38
2022-09-03T09:33:25.509Z,20.05
2022-09-03T09:38:26.827Z,20.32
2022-09-03T09:43:28.144Z,20.32
2022-09-03T09:48:31.201Z,21.02
2022-09-03T09:53:32.499Z,21.40
2022-09-03T09:58:34.471Z,21.76
2022-09-03T10:03:35.794Z,21.94
2022-09-03T10:08:37.164Z,22.05
2022-09-03T10:13:38.459Z,22.25
2022-09-03T10:18:40.941Z,22.61
2022-09-03T10:23:42.257Z,22.87
2022-09-03T10:28:43.553Z,23.13
2022-09-03T10:33:44.822Z,22.95
2022-09-03T10:38:46.132Z,23.14
2022-09-03T10:43:47.636Z,23.28
2022-09-03T10:48:49.856Z,23.03
2022-09-03T10:53:51.199Z,23.03
2022-09-03T10:58:55.075Z,23.62
2022-09-03T11:03:56.627Z,24.09
2022-09-03T11:09:02.051Z,24.58
2022-09-03T11:14:07.286Z,24.38
2022-09-03T11:19:08.649Z,24.22
2022-09-03T11:24:10.216Z,24.43
2022-09-03T11:29:11.514Z,23.81
2022-09-03T11:34:14.017Z,23.85
2022-09-03T11:39:24.608Z,23.64
2022-09-03T11:44:25.926Z,23.60
2022-09-03T11:49:27.427Z,23.57
2022-09-03T11:54:29.328Z,23.22
2022-09-03T11:59:31.259Z,23.51
2022-09-03T12:04:32.650Z,23.40
2022-09-03T12:09:34.019Z,23.34
2022-09-03T12:14:35.299Z,23.01
2022-09-03T12:19:36.651Z,23.19
2022-09-03T12:24:38.293Z,22.83
2022-09-03T12:29:40.719Z,22.93
2022-09-03T12:34:42.077Z,23.14
2022-09-03T12:45:04.863Z,22.57
2022-09-03T12:50:07.305Z,23.06
2022-09-03T12:55:08.899Z,22.79
2022-09-03T13:00:10.330Z,22.82
2022-09-03T13:05:11.632Z,22.59
2022-09-03T13:10:12.918Z,22.77
2022-09-03T13:15:14.224Z,22.64
2022-09-03T13:20:16.135Z,22.42
2022-09-03T13:25:17.425Z,22.54
2022-09-03T13:30:18.933Z,22.56
2022-09-03T13:35:20.224Z,22.38
2022-09-03T13:40:21.901Z,22.56
2022-09-03T13:45:23.202Z,22.61
2022-09-03T13:50:26.742Z,22.73
2022-09-03T13:55:28.048Z,22.92
2022-09-03T14:00:29.367Z,22.80
2022-09-03T14:05:31.455Z,22.86
2022-09-03T14:10:32.760Z,22.30
2022-09-03T14:15:34.111Z,22.01
2022-09-03T14:20:35.511Z,21.71
2022-09-03T14:25:36.811Z,21.90
2022-09-03T14:30:38.096Z,21.71
2022-09-03T14:35:39.408Z,21.80
2022-09-03T14:40:40.770Z,21.95
2022-09-03T14:45:42.224Z,22.38
2022-09-03T14:50:43.573Z,22.40
2022-09-03T14:55:45.274Z,21.68
2022-09-03T15:00:47.270Z,21.83
2022-09-03T15:05:48.824Z,22.30
2022-09-03T15:10:54.498Z,22.40
2022-09-03T15:15:57.765Z,22.19
2022-09-03T15:20:59.121Z,21.85
2022-09-03T15:26:00.395Z,21.84
2022-09-03T15:31:01.711Z,22.18
2022-09-03T15:36:02.990Z,22.38
2022-09-03T15:41:04.304Z,22.52
2022-09-03T15:46:13.757Z,22.76
2022-09-03T15:51:15.195Z,22.90
2022-09-03T15:56:16.471Z,22.72
2022-09-03T16:01:17.806Z,22.71
2022-09-03T16:06:19.380Z,22.52
2022-09-03T16:11:20.826Z,22.30
2022-09-03T16:16:22.508Z,22.21
2022-09-03T16:21:25.796Z,22.21
2022-09-03T16:26:27.445Z,22.13
2022-09-03T16:31:28.792Z,22.20
2022-09-03T16:36:30.899Z,22.17
2022-09-03T16:41:33.164Z,22.11
2022-09-03T16:46:34.548Z,21.78
2022-09-03T16:51:36.273Z,21.81
2022-09-03T16:56:37.592Z,21.85
2022-09-03T17:01:39.766Z,21.95
2022-09-03T17:06:41.297Z,21.73
2022-09-03T17:11:42.682Z,21.97
2022-09-03T17:16:44.488Z,21.84
2022-09-03T17:21:46.321Z,21.86
2022-09-03T17:26:47.863Z,21.80
2022-09-03T17:31:51.710Z,21.41
2022-09-03T17:36:53.121Z,21.55
2022-09-03T17:41:54.478Z,21.43
2022-09-03T17:46:57.011Z,21.40
2022-09-03T17:51:58.353Z,21.19
2022-09-03T17:56:59.848Z,20.77
2022-09-03T18:02:03.328Z,20.77
2022-09-03T18:07:04.699Z,20.81
2022-09-03T18:12:05.975Z,20.71
2022-09-03T18:17:09.672Z,20.37
2022-09-03T18:22:33.335Z,19.93
2022-09-03T18:27:53.502Z,19.47
2022-09-03T18:33:13.417Z,19.19
2022-09-03T18:38:33.496Z,19.19
2022-09-03T18:43:53.571Z,18.99
2022-09-03T18:49:13.434Z,19.21
2022-09-03T18:54:50.594Z,19.17
2022-09-03T19:00:13.463Z,19.28
2022-09-03T19:05:33.316Z,19.29
2022-09-03T19:10:54.719Z,19.16
2022-09-03T19:16:14.627Z,19.31
2022-09-03T19:21:34.646Z,19.22
2022-09-03T19:26:54.462Z,19.34
2022-09-03T19:32:14.621Z,19.24
2022-09-03T19:37:34.918Z,19.06
2022-09-03T19:48:49.943Z,18.68
2022-09-03T19:54:09.895Z,18.90
2022-09-03T19:59:29.642Z,18.85
2022-09-03T20:04:49.673Z,18.63
2022-09-03T20:10:09.464Z,18.49
2022-09-03T20:15:15.320Z,18.77
2022-09-03T20:20:16.695Z,18.63
2022-09-03T20:25:18.737Z,18.55
2022-09-03T20:30:20.155Z,18.66
2022-09-03T20:35:21.742Z,18.79
2022-09-03T20:40:28.851Z,18.79
2022-09-03T20:45:30.822Z,18.60
2022-09-03T20:50:39.166Z,18.66
2022-09-03T20:55:40.519Z,18.65
2022-09-03T21:00:45.223Z,18.56
2022-09-03T21:05:46.500Z,18.13
2022-09-03T21:10:48.538Z,18.29
2022-09-03T21:15:55.919Z,18.02
2022-09-03T21:20:58.068Z,18.20
2022-09-03T21:25:59.882Z,18.21
2022-09-03T21:31:01.316Z,18.07
2022-09-03T21:36:02.672Z,17.82
2022-09-03T21:41:03.996Z,17.99
2022-09-03T21:46:05.372Z,18.00
2022-09-03T21:51:06.762Z,17.89
2022-09-03T22:01:54.082Z,17.78
2022-09-03T22:06:55.368Z,17.70
2022-09-03T22:11:56.636Z,17.47
2022-09-03T22:16:58.009Z,17.57
2022-09-03T22:21:59.949Z,17.67
2022-09-03T22:27:01.687Z,17.50
2022-09-03T22:32:02.950Z,17.30
2022-09-03T22:37:06.769Z,17.45
2022-09-03T22:42:10.065Z,17.63
2022-09-03T22:47:11.873Z,17.54
2022-09-03T22:52:13.182Z,17.32
2022-09-03T22:57:14.472Z,17.36
2022-09-03T23:02:17.771Z,17.50
2022-09-03T23:07:19.206Z,17.44
2022-09-03T23:12:20.984Z,17.37
2022-09-03T23:22:26.855Z,17.10
2022-09-03T23:27:28.157Z,17.12
2022-09-03T23:32:33.372Z,17.00
2022-09-03T23:37:34.966Z,16.76
2022-09-03T23:42:36.428Z,16.98
2022-09-03T23:47:37.745Z,16.94
2022-09-03T23:52:39.029Z,16.71
2022-09-03T23:57:40.339Z,16.83
